sensor_id;sensor_type;location;lat;lon;timestamp;P1;durP1;ratioP1;P2;durP2;ratioP2
26502;SDS011;14177;51.520;6.764;2023-09-18T00:00:44;9.40;;;4.72;;
26502;SDS011;14177;51.520;6.764;2023-09-18T00:03:12;8.65;;;5.00;;
26502;SDS011;14177;51.520;6.764;2023-09-18T00:05:39;12.32;;;4.95;;
26502;SDS011;14177;51.520;6.764;2023-09-18T00:08:07;9.57;;;4.82;;
26502;SDS011;14177;51.520;6.764;2023-09-18T00:10:34;7.53;;;4.45;;
26502;SDS011;14177;51.520;6.764;2023-09-18T00:13:01;10.13;;;4.97;;
26502;SDS011;14177;51.520;6.764;2023-09-18T00:15:28;10.32;;;4.55;;
26502;SDS011;14177;51.520;6.764;2023-09-18T00:17:57;9.68;;;5.10;;
26502;SDS011;14177;51.520;6.764;2023-09-18T00:20:24;8.70;;;4.53;;
26502;SDS011;14177;51.520;6.764;2023-09-18T00:22:54;9.18;;;5.28;;
26502;SDS011;14177;51.520;6.764;2023-09-18T00:25:22;8.70;;;4.80;;
26502;SDS011;14177;51.520;6.764;2023-09-18T00:27:49;14.90;;;4.97;;
26502;SDS011;14177;51.520;6.764;2023-09-18T00:30:18;7.22;;;4.63;;
26502;SDS011;14177;51.520;6.764;2023-09-18T00:32:45;8.43;;;4.85;;
26502;SDS011;14177;51.520;6.764;2023-09-18T00:35:13;7.25;;;4.75;;
26502;SDS011;14177;51.520;6.764;2023-09-18T00:37:41;12.10;;;5.20;;
26502;SDS011;14177;51.520;6.764;2023-09-18T00:40:09;11.80;;;5.25;;
26502;SDS011;14177;51.520;6.764;2023-09-18T00:42:37;8.55;;;5.47;;
26502;SDS011;14177;51.520;6.764;2023-09-18T00:45:04;9.88;;;4.95;;
26502;SDS011;14177;51.520;6.764;2023-09-18T00:47:32;7.40;;;4.18;;
26502;SDS011;14177;51.520;6.764;2023-09-18T00:49:59;8.18;;;4.65;;
26502;SDS011;14177;51.520;6.764;2023-09-18T00:52:27;9.43;;;4.75;;
26502;SDS011;14177;51.520;6.764;2023-09-18T00:54:54;7.95;;;4.88;;
26502;SDS011;14177;51.520;6.764;2023-09-18T00:57:22;7.00;;;4.80;;
26502;SDS011;14177;51.520;6.764;2023-09-18T00:59:49;7.78;;;4.38;;
26502;SDS011;14177;51.520;6.764;2023-09-18T01:02:17;8.73;;;4.65;;
26502;SDS011;14177;51.520;6.764;2023-09-18T01:04:47;8.15;;;4.35;;
26502;SDS011;14177;51.520;6.764;2023-09-18T01:07:15;9.77;;;4.35;;
26502;SDS011;14177;51.520;6.764;2023-09-18T01:09:42;14.60;;;4.90;;
26502;SDS011;14177;51.520;6.764;2023-09-18T01:15:30;11.43;;;4.57;;
26502;SDS011;14177;51.520;6.764;2023-09-18T01:18:09;13.68;;;5.03;;
26502;SDS011;14177;51.520;6.764;2023-09-18T01:20:36;11.13;;;4.90;;
26502;SDS011;14177;51.520;6.764;2023-09-18T01:23:03;7.55;;;4.82;;
26502;SDS011;14177;51.520;6.764;2023-09-18T01:25:31;8.60;;;5.18;;
26502;SDS011;14177;51.520;6.764;2023-09-18T01:27:59;8.18;;;5.10;;
26502;SDS011;14177;51.520;6.764;2023-09-18T01:30:26;11.60;;;5.30;;
26502;SDS011;14177;51.520;6.764;2023-09-18T01:32:54;11.15;;;4.68;;
26502;SDS011;14177;51.520;6.764;2023-09-18T01:35:25;8.52;;;4.90;;
26502;SDS011;14177;51.520;6.764;2023-09-18T01:37:56;8.82;;;4.45;;
26502;SDS011;14177;51.520;6.764;2023-09-18T01:40:25;8.57;;;4.80;;
26502;SDS011;14177;51.520;6.764;2023-09-18T01:42:53;7.70;;;4.55;;
26502;SDS011;14177;51.520;6.764;2023-09-18T01:45:20;10.05;;;4.55;;
26502;SDS011;14177;51.520;6.764;2023-09-18T01:47:47;7.32;;;4.85;;
26502;SDS011;14177;51.520;6.764;2023-09-18T01:50:14;9.32;;;5.22;;
26502;SDS011;14177;51.520;6.764;2023-09-18T01:52:41;7.93;;;4.75;;
26502;SDS011;14177;51.520;6.764;2023-09-18T01:55:08;12.07;;;4.82;;
26502;SDS011;14177;51.520;6.764;2023-09-18T01:57:36;7.40;;;4.88;;
26502;SDS011;14177;51.520;6.764;2023-09-18T02:00:03;9.95;;;4.63;;
26502;SDS011;14177;51.520;6.764;2023-09-18T02:02:37;10.68;;;5.20;;
26502;SDS011;14177;51.520;6.764;2023-09-18T02:05:23;8.77;;;4.97;;
26502;SDS011;14177;51.520;6.764;2023-09-18T02:07:51;13.00;;;4.63;;
26502;SDS011;14177;51.520;6.764;2023-09-18T02:10:19;11.80;;;5.03;;
26502;SDS011;14177;51.520;6.764;2023-09-18T02:12:46;10.40;;;4.85;;
26502;SDS011;14177;51.520;6.764;2023-09-18T02:15:12;10.05;;;5.05;;
26502;SDS011;14177;51.520;6.764;2023-09-18T02:17:40;7.70;;;4.55;;
26502;SDS011;14177;51.520;6.764;2023-09-18T02:20:07;8.00;;;4.32;;
26502;SDS011;14177;51.520;6.764;2023-09-18T02:22:38;8.90;;;4.63;;
26502;SDS011;14177;51.520;6.764;2023-09-18T02:25:13;8.60;;;5.25;;
26502;SDS011;14177;51.520;6.764;2023-09-18T02:27:40;9.77;;;4.70;;
26502;SDS011;14177;51.520;6.764;2023-09-18T02:30:07;10.40;;;4.63;;
26502;SDS011;14177;51.520;6.764;2023-09-18T02:32:36;12.13;;;4.97;;
26502;SDS011;14177;51.520;6.764;2023-09-18T02:35:03;9.75;;;4.38;;
26502;SDS011;14177;51.520;6.764;2023-09-18T02:37:33;6.55;;;4.15;;
26502;SDS011;14177;51.520;6.764;2023-09-18T02:40:00;7.55;;;4.60;;
26502;SDS011;14177;51.520;6.764;2023-09-18T02:42:27;8.75;;;4.90;;
26502;SDS011;14177;51.520;6.764;2023-09-18T02:44:54;9.13;;;4.63;;
26502;SDS011;14177;51.520;6.764;2023-09-18T02:47:21;10.77;;;4.93;;
26502;SDS011;14177;51.520;6.764;2023-09-18T02:49:48;8.15;;;4.15;;
26502;SDS011;14177;51.520;6.764;2023-09-18T02:52:15;8.07;;;4.97;;
26502;SDS011;14177;51.520;6.764;2023-09-18T02:54:42;5.90;;;4.50;;
26502;SDS011;14177;51.520;6.764;2023-09-18T02:57:09;6.68;;;4.57;;
26502;SDS011;14177;51.520;6.764;2023-09-18T02:59:36;7.97;;;4.45;;
26502;SDS011;14177;51.520;6.764;2023-09-18T03:02:03;8.63;;;5.10;;
26502;SDS011;14177;51.520;6.764;2023-09-18T03:04:31;9.32;;;5.60;;
26502;SDS011;14177;51.520;6.764;2023-09-18T03:06:58;8.73;;;5.30;;
26502;SDS011;14177;51.520;6.764;2023-09-18T03:09:25;8.32;;;5.53;;
26502;SDS011;14177;51.520;6.764;2023-09-18T03:11:52;11.55;;;5.47;;
26502;SDS011;14177;51.520;6.764;2023-09-18T03:14:19;7.97;;;4.60;;
26502;SDS011;14177;51.520;6.764;2023-09-18T03:16:46;9.75;;;5.00;;
26502;SDS011;14177;51.520;6.764;2023-09-18T03:19:13;8.90;;;4.82;;
26502;SDS011;14177;51.520;6.764;2023-09-18T03:21:41;10.43;;;4.93;;
26502;SDS011;14177;51.520;6.764;2023-09-18T03:24:08;8.15;;;5.68;;
26502;SDS011;14177;51.520;6.764;2023-09-18T03:26:35;9.35;;;5.80;;
26502;SDS011;14177;51.520;6.764;2023-09-18T03:29:02;7.97;;;5.00;;
26502;SDS011;14177;51.520;6.764;2023-09-18T03:31:30;6.93;;;4.80;;
26502;SDS011;14177;51.520;6.764;2023-09-18T03:33:57;7.80;;;4.55;;
26502;SDS011;14177;51.520;6.764;2023-09-18T03:36:26;10.07;;;5.43;;
26502;SDS011;14177;51.520;6.764;2023-09-18T03:38:53;10.43;;;5.75;;
26502;SDS011;14177;51.520;6.764;2023-09-18T03:41:21;11.18;;;5.63;;
26502;SDS011;14177;51.520;6.764;2023-09-18T03:43:48;8.82;;;5.40;;
26502;SDS011;14177;51.520;6.764;2023-09-18T03:46:16;14.50;;;5.10;;
26502;SDS011;14177;51.520;6.764;2023-09-18T03:48:47;7.50;;;4.20;;
26502;SDS011;14177;51.520;6.764;2023-09-18T03:51:14;7.60;;;3.65;;
26502;SDS011;14177;51.520;6.764;2023-09-18T03:53:42;6.07;;;3.47;;
26502;SDS011;14177;51.520;6.764;2023-09-18T03:56:10;9.93;;;3.58;;
26502;SDS011;14177;51.520;6.764;2023-09-18T03:58:37;7.22;;;3.13;;
26502;SDS011;14177;51.520;6.764;2023-09-18T04:01:04;10.50;;;3.60;;
26502;SDS011;14177;51.520;6.764;2023-09-18T04:03:31;8.30;;;3.35;;
26502;SDS011;14177;51.520;6.764;2023-09-18T04:05:58;8.27;;;3.60;;
26502;SDS011;14177;51.520;6.764;2023-09-18T04:08:25;10.80;;;3.60;;
26502;SDS011;14177;51.520;6.764;2023-09-18T04:10:54;10.63;;;3.90;;
26502;SDS011;14177;51.520;6.764;2023-09-18T04:13:23;9.05;;;3.80;;
26502;SDS011;14177;51.520;6.764;2023-09-18T04:15:52;7.43;;;3.60;;
26502;SDS011;14177;51.520;6.764;2023-09-18T04:18:23;5.95;;;3.75;;
26502;SDS011;14177;51.520;6.764;2023-09-18T04:20:50;7.25;;;3.40;;
26502;SDS011;14177;51.520;6.764;2023-09-18T04:23:22;6.93;;;3.35;;
26502;SDS011;14177;51.520;6.764;2023-09-18T04:25:51;7.97;;;3.17;;
26502;SDS011;14177;51.520;6.764;2023-09-18T04:28:21;11.10;;;3.33;;
26502;SDS011;14177;51.520;6.764;2023-09-18T04:30:49;10.98;;;3.80;;
26502;SDS011;14177;51.520;6.764;2023-09-18T04:33:17;8.45;;;3.25;;
26502;SDS011;14177;51.520;6.764;2023-09-18T04:35:44;9.95;;;3.38;;
26502;SDS011;14177;51.520;6.764;2023-09-18T04:38:12;12.63;;;2.92;;
26502;SDS011;14177;51.520;6.764;2023-09-18T04:40:43;11.93;;;3.60;;
26502;SDS011;14177;51.520;6.764;2023-09-18T04:43:12;10.38;;;3.47;;
26502;SDS011;14177;51.520;6.764;2023-09-18T04:45:39;14.43;;;5.15;;
26502;SDS011;14177;51.520;6.764;2023-09-18T04:48:07;9.80;;;3.80;;
26502;SDS011;14177;51.520;6.764;2023-09-18T04:50:34;11.02;;;4.07;;
26502;SDS011;14177;51.520;6.764;2023-09-18T04:53:03;10.45;;;3.95;;
26502;SDS011;14177;51.520;6.764;2023-09-18T04:55:31;10.05;;;3.83;;
26502;SDS011;14177;51.520;6.764;2023-09-18T04:57:58;7.72;;;3.63;;
26502;SDS011;14177;51.520;6.764;2023-09-18T05:00:26;9.85;;;3.75;;
26502;SDS011;14177;51.520;6.764;2023-09-18T05:02:57;8.77;;;4.13;;
26502;SDS011;14177;51.520;6.764;2023-09-18T05:05:29;10.00;;;3.80;;
26502;SDS011;14177;51.520;6.764;2023-09-18T05:07:57;10.25;;;4.00;;
26502;SDS011;14177;51.520;6.764;2023-09-18T05:10:24;14.70;;;4.35;;
26502;SDS011;14177;51.520;6.764;2023-09-18T05:12:51;9.60;;;4.47;;
26502;SDS011;14177;51.520;6.764;2023-09-18T05:15:25;8.63;;;4.88;;
26502;SDS011;14177;51.520;6.764;2023-09-18T05:17:55;8.13;;;4.72;;
26502;SDS011;14177;51.520;6.764;2023-09-18T05:20:25;10.55;;;3.95;;
26502;SDS011;14177;51.520;6.764;2023-09-18T05:22:55;8.57;;;3.50;;
26502;SDS011;14177;51.520;6.764;2023-09-18T05:25:25;13.10;;;3.80;;
26502;SDS011;14177;51.520;6.764;2023-09-18T05:27:59;12.00;;;3.27;;
26502;SDS011;14177;51.520;6.764;2023-09-18T05:30:27;12.18;;;3.30;;
26502;SDS011;14177;51.520;6.764;2023-09-18T05:32:59;8.18;;;3.13;;
26502;SDS011;14177;51.520;6.764;2023-09-18T05:35:36;8.70;;;2.90;;
26502;SDS011;14177;51.520;6.764;2023-09-18T05:38:11;5.55;;;3.20;;
26502;SDS011;14177;51.520;6.764;2023-09-18T05:40:40;10.80;;;4.15;;
26502;SDS011;14177;51.520;6.764;2023-09-18T05:43:07;12.98;;;3.63;;
26502;SDS011;14177;51.520;6.764;2023-09-18T05:45:35;8.05;;;3.28;;
26502;SDS011;14177;51.520;6.764;2023-09-18T05:48:02;14.45;;;4.43;;
26502;SDS011;14177;51.520;6.764;2023-09-18T05:50:34;7.47;;;3.17;;
26502;SDS011;14177;51.520;6.764;2023-09-18T05:53:02;7.40;;;2.92;;
26502;SDS011;14177;51.520;6.764;2023-09-18T05:55:31;10.05;;;3.60;;
26502;SDS011;14177;51.520;6.764;2023-09-18T05:57:59;10.80;;;3.38;;
26502;SDS011;14177;51.520;6.764;2023-09-18T06:00:29;9.77;;;3.17;;
26502;SDS011;14177;51.520;6.764;2023-09-18T06:02:57;9.52;;;3.33;;
26502;SDS011;14177;51.520;6.764;2023-09-18T06:05:25;9.55;;;3.70;;
26502;SDS011;14177;51.520;6.764;2023-09-18T06:07:52;15.77;;;3.50;;
26502;SDS011;14177;51.520;6.764;2023-09-18T06:10:19;11.90;;;4.07;;
26502;SDS011;14177;51.520;6.764;2023-09-18T06:12:47;8.75;;;3.70;;
26502;SDS011;14177;51.520;6.764;2023-09-18T06:15:14;10.88;;;3.88;;
26502;SDS011;14177;51.520;6.764;2023-09-18T06:17:42;10.68;;;3.92;;
26502;SDS011;14177;51.520;6.764;2023-09-18T06:20:11;9.80;;;4.25;;
26502;SDS011;14177;51.520;6.764;2023-09-18T06:22:42;13.52;;;4.55;;
26502;SDS011;14177;51.520;6.764;2023-09-18T06:25:09;15.50;;;4.30;;
26502;SDS011;14177;51.520;6.764;2023-09-18T06:27:37;15.65;;;4.25;;
26502;SDS011;14177;51.520;6.764;2023-09-18T06:30:04;13.52;;;4.70;;
26502;SDS011;14177;51.520;6.764;2023-09-18T06:32:33;12.93;;;4.40;;
26502;SDS011;14177;51.520;6.764;2023-09-18T06:35:00;14.45;;;3.75;;
26502;SDS011;14177;51.520;6.764;2023-09-18T06:37:28;11.45;;;3.58;;
26502;SDS011;14177;51.520;6.764;2023-09-18T06:39:55;8.60;;;3.67;;
26502;SDS011;14177;51.520;6.764;2023-09-18T06:42:25;6.25;;;2.75;;
26502;SDS011;14177;51.520;6.764;2023-09-18T06:44:56;10.23;;;3.40;;
26502;SDS011;14177;51.520;6.764;2023-09-18T06:47:23;15.15;;;3.20;;
26502;SDS011;14177;51.520;6.764;2023-09-18T06:49:51;7.65;;;3.00;;
26502;SDS011;14177;51.520;6.764;2023-09-18T06:52:18;4.45;;;2.25;;
26502;SDS011;14177;51.520;6.764;2023-09-18T06:54:45;12.55;;;3.53;;
26502;SDS011;14177;51.520;6.764;2023-09-18T06:57:12;7.35;;;2.42;;
26502;SDS011;14177;51.520;6.764;2023-09-18T06:59:39;4.38;;;2.35;;
26502;SDS011;14177;51.520;6.764;2023-09-18T07:02:06;16.70;;;3.40;;
26502;SDS011;14177;51.520;6.764;2023-09-18T07:04:33;5.35;;;2.13;;
26502;SDS011;14177;51.520;6.764;2023-09-18T07:07:00;7.72;;;2.45;;
26502;SDS011;14177;51.520;6.764;2023-09-18T07:09:27;8.05;;;1.95;;
26502;SDS011;14177;51.520;6.764;2023-09-18T07:11:54;7.97;;;2.15;;
26502;SDS011;14177;51.520;6.764;2023-09-18T07:14:21;5.30;;;1.90;;
26502;SDS011;14177;51.520;6.764;2023-09-18T07:16:48;6.95;;;2.15;;
26502;SDS011;14177;51.520;6.764;2023-09-18T07:19:15;8.30;;;2.20;;
26502;SDS011;14177;51.520;6.764;2023-09-18T07:21:43;3.70;;;1.60;;
26502;SDS011;14177;51.520;6.764;2023-09-18T07:24:11;6.65;;;2.03;;
26502;SDS011;14177;51.520;6.764;2023-09-18T07:26:47;5.30;;;1.83;;
26502;SDS011;14177;51.520;6.764;2023-09-18T07:29:15;5.72;;;1.50;;
26502;SDS011;14177;51.520;6.764;2023-09-18T07:31:43;6.05;;;1.60;;
26502;SDS011;14177;51.520;6.764;2023-09-18T07:34:11;6.47;;;1.60;;
26502;SDS011;14177;51.520;6.764;2023-09-18T07:36:39;6.03;;;2.05;;
26502;SDS011;14177;51.520;6.764;2023-09-18T07:39:07;7.18;;;1.92;;
26502;SDS011;14177;51.520;6.764;2023-09-18T07:41:34;8.75;;;1.50;;
26502;SDS011;14177;51.520;6.764;2023-09-18T07:44:01;4.55;;;1.65;;
26502;SDS011;14177;51.520;6.764;2023-09-18T07:46:28;3.95;;;1.10;;
26502;SDS011;14177;51.520;6.764;2023-09-18T07:48:55;7.13;;;1.80;;
26502;SDS011;14177;51.520;6.764;2023-09-18T07:51:22;3.90;;;1.48;;
26502;SDS011;14177;51.520;6.764;2023-09-18T07:53:49;6.00;;;1.67;;
26502;SDS011;14177;51.520;6.764;2023-09-18T07:56:17;6.57;;;1.65;;
26502;SDS011;14177;51.520;6.764;2023-09-18T07:58:45;3.40;;;1.35;;
26502;SDS011;14177;51.520;6.764;2023-09-18T08:01:13;5.43;;;1.50;;
26502;SDS011;14177;51.520;6.764;2023-09-18T08:03:42;3.70;;;1.65;;
26502;SDS011;14177;51.520;6.764;2023-09-18T08:06:09;6.88;;;1.42;;
26502;SDS011;14177;51.520;6.764;2023-09-18T08:08:38;4.30;;;1.80;;
26502;SDS011;14177;51.520;6.764;2023-09-18T08:11:09;5.50;;;1.58;;
26502;SDS011;14177;51.520;6.764;2023-09-18T08:13:36;6.75;;;1.73;;
26502;SDS011;14177;51.520;6.764;2023-09-18T08:16:05;4.70;;;1.80;;
26502;SDS011;14177;51.520;6.764;2023-09-18T08:18:33;5.85;;;1.50;;
26502;SDS011;14177;51.520;6.764;2023-09-18T08:21:02;4.43;;;1.70;;
26502;SDS011;14177;51.520;6.764;2023-09-18T08:23:31;6.32;;;1.40;;
26502;SDS011;14177;51.520;6.764;2023-09-18T08:25:59;5.20;;;1.73;;
26502;SDS011;14177;51.520;6.764;2023-09-18T08:28:26;5.90;;;1.90;;
26502;SDS011;14177;51.520;6.764;2023-09-18T08:30:53;7.40;;;1.90;;
26502;SDS011;14177;51.520;6.764;2023-09-18T08:33:20;6.28;;;1.33;;
26502;SDS011;14177;51.520;6.764;2023-09-18T08:35:47;3.92;;;1.15;;
26502;SDS011;14177;51.520;6.764;2023-09-18T08:38:16;4.05;;;1.20;;
26502;SDS011;14177;51.520;6.764;2023-09-18T08:40:43;11.43;;;1.63;;
26502;SDS011;14177;51.520;6.764;2023-09-18T08:43:10;5.05;;;1.17;;
26502;SDS011;14177;51.520;6.764;2023-09-18T08:45:43;3.58;;;1.60;;
26502;SDS011;14177;51.520;6.764;2023-09-18T08:48:19;4.63;;;1.65;;
26502;SDS011;14177;51.520;6.764;2023-09-18T08:50:47;3.53;;;1.48;;
26502;SDS011;14177;51.520;6.764;2023-09-18T08:53:15;4.18;;;1.10;;
26502;SDS011;14177;51.520;6.764;2023-09-18T08:55:42;4.63;;;1.27;;
26502;SDS011;14177;51.520;6.764;2023-09-18T08:58:09;2.55;;;1.10;;
26502;SDS011;14177;51.520;6.764;2023-09-18T09:00:37;3.22;;;1.17;;
26502;SDS011;14177;51.520;6.764;2023-09-18T09:03:04;5.22;;;0.95;;
26502;SDS011;14177;51.520;6.764;2023-09-18T09:05:32;3.38;;;1.30;;
26502;SDS011;14177;51.520;6.764;2023-09-18T09:07:59;4.10;;;0.90;;
26502;SDS011;14177;51.520;6.764;2023-09-18T09:10:27;3.72;;;1.08;;
26502;SDS011;14177;51.520;6.764;2023-09-18T09:12:58;3.05;;;0.90;;
26502;SDS011;14177;51.520;6.764;2023-09-18T09:15:28;6.25;;;1.70;;
26502;SDS011;14177;51.520;6.764;2023-09-18T09:18:13;4.50;;;1.20;;
26502;SDS011;14177;51.520;6.764;2023-09-18T09:20:41;3.47;;;1.50;;
26502;SDS011;14177;51.520;6.764;2023-09-18T09:23:20;6.68;;;1.83;;
26502;SDS011;14177;51.520;6.764;2023-09-18T09:25:47;5.75;;;2.40;;
26502;SDS011;14177;51.520;6.764;2023-09-18T09:28:14;2.50;;;1.10;;
26502;SDS011;14177;51.520;6.764;2023-09-18T09:30:42;4.93;;;1.50;;
26502;SDS011;14177;51.520;6.764;2023-09-18T09:33:11;7.40;;;1.75;;
26502;SDS011;14177;51.520;6.764;2023-09-18T09:35:39;1.67;;;1.30;;
26502;SDS011;14177;51.520;6.764;2023-09-18T09:38:07;4.25;;;1.55;;
26502;SDS011;14177;51.520;6.764;2023-09-18T09:40:40;6.25;;;1.63;;
26502;SDS011;14177;51.520;6.764;2023-09-18T09:43:10;4.32;;;1.38;;
26502;SDS011;14177;51.520;6.764;2023-09-18T09:45:42;3.40;;;1.00;;
26502;SDS011;14177;51.520;6.764;2023-09-18T09:48:12;7.47;;;1.50;;
26502;SDS011;14177;51.520;6.764;2023-09-18T09:50:43;3.53;;;1.50;;
26502;SDS011;14177;51.520;6.764;2023-09-18T09:53:15;5.60;;;1.52;;
26502;SDS011;14177;51.520;6.764;2023-09-18T09:55:42;3.75;;;1.23;;
26502;SDS011;14177;51.520;6.764;2023-09-18T09:58:09;4.25;;;1.25;;
26502;SDS011;14177;51.520;6.764;2023-09-18T10:00:49;2.28;;;0.90;;
26502;SDS011;14177;51.520;6.764;2023-09-18T10:03:22;3.17;;;1.20;;
26502;SDS011;14177;51.520;6.764;2023-09-18T10:05:52;4.78;;;1.58;;
26502;SDS011;14177;51.520;6.764;2023-09-18T10:08:22;4.75;;;1.83;;
26502;SDS011;14177;51.520;6.764;2023-09-18T10:11:00;6.72;;;1.20;;
26502;SDS011;14177;51.520;6.764;2023-09-18T10:13:41;4.80;;;1.35;;
26502;SDS011;14177;51.520;6.764;2023-09-18T10:16:19;6.55;;;1.58;;
26502;SDS011;14177;51.520;6.764;2023-09-18T10:24:42;5.38;;;1.27;;
26502;SDS011;14177;51.520;6.764;2023-09-18T10:27:16;7.20;;;1.70;;
26502;SDS011;14177;51.520;6.764;2023-09-18T10:29:48;6.53;;;1.42;;
26502;SDS011;14177;51.520;6.764;2023-09-18T10:32:18;3.88;;;1.30;;
26502;SDS011;14177;51.520;6.764;2023-09-18T10:34:47;5.63;;;1.63;;
26502;SDS011;14177;51.520;6.764;2023-09-18T10:37:15;5.22;;;1.20;;
26502;SDS011;14177;51.520;6.764;2023-09-18T10:39:43;3.15;;;1.30;;
26502;SDS011;14177;51.520;6.764;2023-09-18T10:42:15;5.93;;;1.60;;
26502;SDS011;14177;51.520;6.764;2023-09-18T10:44:45;6.65;;;1.80;;
26502;SDS011;14177;51.520;6.764;2023-09-18T10:47:13;4.43;;;1.20;;
26502;SDS011;14177;51.520;6.764;2023-09-18T10:49:41;4.30;;;1.58;;
26502;SDS011;14177;51.520;6.764;2023-09-18T10:52:11;4.80;;;1.45;;
26502;SDS011;14177;51.520;6.764;2023-09-18T10:54:40;5.55;;;1.40;;
26502;SDS011;14177;51.520;6.764;2023-09-18T10:57:07;3.40;;;1.63;;
26502;SDS011;14177;51.520;6.764;2023-09-18T10:59:39;3.03;;;1.33;;
26502;SDS011;14177;51.520;6.764;2023-09-18T11:02:15;4.88;;;1.63;;
26502;SDS011;14177;51.520;6.764;2023-09-18T11:04:44;6.45;;;1.60;;
26502;SDS011;14177;51.520;6.764;2023-09-18T11:07:21;2.97;;;1.20;;
26502;SDS011;14177;51.520;6.764;2023-09-18T11:09:49;3.17;;;1.50;;
26502;SDS011;14177;51.520;6.764;2023-09-18T11:12:16;7.40;;;1.58;;
26502;SDS011;14177;51.520;6.764;2023-09-18T11:14:57;5.18;;;1.67;;
26502;SDS011;14177;51.520;6.764;2023-09-18T11:17:30;3.75;;;1.92;;
26502;SDS011;14177;51.520;6.764;2023-09-18T11:22:47;3.13;;;1.13;;
26502;SDS011;14177;51.520;6.764;2023-09-18T11:25:41;8.20;;;1.50;;
26502;SDS011;14177;51.520;6.764;2023-09-18T11:28:15;5.90;;;1.23;;
26502;SDS011;14177;51.520;6.764;2023-09-18T11:30:50;9.93;;;1.60;;
26502;SDS011;14177;51.520;6.764;2023-09-18T11:36:07;7.60;;;1.60;;
26502;SDS011;14177;51.520;6.764;2023-09-18T11:38:54;9.10;;;2.30;;
26502;SDS011;14177;51.520;6.764;2023-09-18T11:41:30;5.65;;;1.92;;
26502;SDS011;14177;51.520;6.764;2023-09-18T11:46:47;4.22;;;1.90;;
26502;SDS011;14177;51.520;6.764;2023-09-18T11:49:19;6.70;;;1.88;;
26502;SDS011;14177;51.520;6.764;2023-09-18T11:51:54;6.75;;;1.42;;
26502;SDS011;14177;51.520;6.764;2023-09-18T11:54:24;9.75;;;2.42;;
26502;SDS011;14177;51.520;6.764;2023-09-18T11:56:53;11.70;;;2.28;;
26502;SDS011;14177;51.520;6.764;2023-09-18T11:59:34;11.27;;;2.65;;
26502;SDS011;14177;51.520;6.764;2023-09-18T12:02:10;5.10;;;1.88;;
26502;SDS011;14177;51.520;6.764;2023-09-18T12:04:37;3.00;;;1.13;;
26502;SDS011;14177;51.520;6.764;2023-09-18T12:07:05;6.88;;;1.73;;
26502;SDS011;14177;51.520;6.764;2023-09-18T12:09:35;9.18;;;1.90;;
26502;SDS011;14177;51.520;6.764;2023-09-18T12:12:04;5.30;;;1.65;;
26502;SDS011;14177;51.520;6.764;2023-09-18T12:14:34;4.82;;;1.50;;
26502;SDS011;14177;51.520;6.764;2023-09-18T12:17:01;6.65;;;1.92;;
26502;SDS011;14177;51.520;6.764;2023-09-18T12:19:30;4.32;;;1.60;;
26502;SDS011;14177;51.520;6.764;2023-09-18T12:21:57;6.65;;;2.03;;
26502;SDS011;14177;51.520;6.764;2023-09-18T12:24:25;5.03;;;2.13;;
26502;SDS011;14177;51.520;6.764;2023-09-18T12:26:52;11.55;;;2.45;;
26502;SDS011;14177;51.520;6.764;2023-09-18T12:29:21;11.63;;;2.33;;
26502;SDS011;14177;51.520;6.764;2023-09-18T12:31:48;11.00;;;2.25;;
26502;SDS011;14177;51.520;6.764;2023-09-18T12:34:20;4.47;;;1.50;;
26502;SDS011;14177;51.520;6.764;2023-09-18T12:36:49;9.48;;;1.98;;
26502;SDS011;14177;51.520;6.764;2023-09-18T12:39:17;6.43;;;1.83;;
26502;SDS011;14177;51.520;6.764;2023-09-18T12:41:47;4.75;;;1.60;;
26502;SDS011;14177;51.520;6.764;2023-09-18T12:44:15;4.78;;;1.58;;
26502;SDS011;14177;51.520;6.764;2023-09-18T12:46:43;4.88;;;1.35;;
26502;SDS011;14177;51.520;6.764;2023-09-18T12:49:19;8.55;;;2.00;;
26502;SDS011;14177;51.520;6.764;2023-09-18T12:51:55;3.55;;;1.52;;
26502;SDS011;14177;51.520;6.764;2023-09-18T12:54:45;2.00;;;1.13;;
26502;SDS011;14177;51.520;6.764;2023-09-18T12:57:19;5.40;;;1.15;;
26502;SDS011;14177;51.520;6.764;2023-09-18T12:59:47;4.03;;;1.58;;
26502;SDS011;14177;51.520;6.764;2023-09-18T13:02:17;10.43;;;1.67;;
26502;SDS011;14177;51.520;6.764;2023-09-18T13:04:51;3.25;;;1.20;;
26502;SDS011;14177;51.520;6.764;2023-09-18T13:07:22;4.25;;;1.20;;
26502;SDS011;14177;51.520;6.764;2023-09-18T13:10:00;4.85;;;1.30;;
26502;SDS011;14177;51.520;6.764;2023-09-18T13:12:41;2.88;;;1.40;;
26502;SDS011;14177;51.520;6.764;2023-09-18T13:15:09;3.25;;;1.50;;
26502;SDS011;14177;51.520;6.764;2023-09-18T13:17:39;2.80;;;1.30;;
26502;SDS011;14177;51.520;6.764;2023-09-18T13:20:12;9.93;;;2.15;;
26502;SDS011;14177;51.520;6.764;2023-09-18T13:22:41;7.45;;;2.00;;
26502;SDS011;14177;51.520;6.764;2023-09-18T13:25:21;10.48;;;3.33;;
26502;SDS011;14177;51.520;6.764;2023-09-18T13:27:57;7.30;;;2.65;;
26502;SDS011;14177;51.520;6.764;2023-09-18T13:30:24;3.17;;;1.13;;
26502;SDS011;14177;51.520;6.764;2023-09-18T13:32:51;3.55;;;1.23;;
26502;SDS011;14177;51.520;6.764;2023-09-18T13:35:28;9.65;;;2.70;;
26502;SDS011;14177;51.520;6.764;2023-09-18T13:37:55;5.47;;;1.80;;
26502;SDS011;14177;51.520;6.764;2023-09-18T13:40:22;4.30;;;1.50;;
26502;SDS011;14177;51.520;6.764;2023-09-18T13:42:49;3.67;;;1.58;;
26502;SDS011;14177;51.520;6.764;2023-09-18T13:45:17;4.28;;;1.45;;
26502;SDS011;14177;51.520;6.764;2023-09-18T13:47:44;4.63;;;1.60;;
26502;SDS011;14177;51.520;6.764;2023-09-18T13:50:12;2.70;;;1.55;;
26502;SDS011;14177;51.520;6.764;2023-09-18T13:52:40;4.60;;;1.65;;
26502;SDS011;14177;51.520;6.764;2023-09-18T13:55:08;7.65;;;1.95;;
26502;SDS011;14177;51.520;6.764;2023-09-18T13:57:36;5.55;;;1.05;;
26502;SDS011;14177;51.520;6.764;2023-09-18T14:00:03;8.15;;;1.42;;
26502;SDS011;14177;51.520;6.764;2023-09-18T14:02:41;12.57;;;2.83;;
26502;SDS011;14177;51.520;6.764;2023-09-18T14:05:09;5.00;;;1.77;;
26502;SDS011;14177;51.520;6.764;2023-09-18T14:07:43;5.57;;;1.45;;
26502;SDS011;14177;51.520;6.764;2023-09-18T14:10:14;3.72;;;1.35;;
26502;SDS011;14177;51.520;6.764;2023-09-18T14:12:43;3.67;;;1.10;;
26502;SDS011;14177;51.520;6.764;2023-09-18T14:15:10;2.88;;;1.20;;
26502;SDS011;14177;51.520;6.764;2023-09-18T14:17:37;3.03;;;1.17;;
26502;SDS011;14177;51.520;6.764;2023-09-18T14:20:05;5.65;;;1.65;;
26502;SDS011;14177;51.520;6.764;2023-09-18T14:22:34;3.22;;;1.33;;
26502;SDS011;14177;51.520;6.764;2023-09-18T14:25:02;9.48;;;2.17;;
26502;SDS011;14177;51.520;6.764;2023-09-18T14:27:34;5.30;;;1.73;;
26502;SDS011;14177;51.520;6.764;2023-09-18T14:30:02;5.20;;;1.70;;
26502;SDS011;14177;51.520;6.764;2023-09-18T14:32:33;3.85;;;1.40;;
26502;SDS011;14177;51.520;6.764;2023-09-18T14:35:05;4.80;;;1.30;;
26502;SDS011;14177;51.520;6.764;2023-09-18T14:37:35;5.25;;;1.20;;
26502;SDS011;14177;51.520;6.764;2023-09-18T14:40:03;6.15;;;1.75;;
26502;SDS011;14177;51.520;6.764;2023-09-18T14:42:31;4.57;;;1.27;;
26502;SDS011;14177;51.520;6.764;2023-09-18T14:44:59;7.85;;;1.23;;
26502;SDS011;14177;51.520;6.764;2023-09-18T14:47:28;3.85;;;1.05;;
26502;SDS011;14177;51.520;6.764;2023-09-18T14:49:55;2.72;;;1.27;;
26502;SDS011;14177;51.520;6.764;2023-09-18T14:52:25;5.45;;;1.55;;
26502;SDS011;14177;51.520;6.764;2023-09-18T14:54:52;3.92;;;1.95;;
26502;SDS011;14177;51.520;6.764;2023-09-18T14:57:20;6.35;;;1.95;;
26502;SDS011;14177;51.520;6.764;2023-09-18T14:59:47;6.63;;;2.20;;
26502;SDS011;14177;51.520;6.764;2023-09-18T15:02:15;10.27;;;2.60;;
26502;SDS011;14177;51.520;6.764;2023-09-18T15:04:44;8.88;;;2.75;;
26502;SDS011;14177;51.520;6.764;2023-09-18T15:07:12;7.97;;;2.30;;
26502;SDS011;14177;51.520;6.764;2023-09-18T15:09:40;9.20;;;1.48;;
26502;SDS011;14177;51.520;6.764;2023-09-18T15:12:07;11.43;;;2.30;;
26502;SDS011;14177;51.520;6.764;2023-09-18T15:14:35;9.18;;;2.47;;